sensor_id;sensor_type;location;lat;lon;timestamp;pressure;altitude;pressure_sealevel;temperature;humidity
72612;BME280;60655;52.182;4.474;2023-11-18T00:01:33;102216.00;;;7.53;100.00
72612;BME280;60655;52.182;4.474;2023-11-18T00:03:34;102221.00;;;7.48;100.00
72612;BME280;60655;52.182;4.474;2023-11-18T00:05:35;102207.09;;;7.54;100.00
72612;BME280;60655;52.182;4.474;2023-11-18T00:07:36;102203.97;;;7.51;100.00
72612;BME280;60655;52.182;4.474;2023-11-18T00:09:37;102198.66;;;7.42;100.00
72612;BME280;60655;52.182;4.474;2023-11-18T00:11:38;102203.31;;;7.49;100.00
72612;BME280;60655;52.182;4.474;2023-11-18T00:13:39;102202.63;;;7.47;100.00
72612;BME280;60655;52.182;4.474;2023-11-18T00:15:40;102192.22;;;7.45;100.00
72612;BME280;60655;52.182;4.474;2023-11-18T00:17:41;102208.91;;;7.45;100.00
72612;BME280;60655;52.182;4.474;2023-11-18T00:19:42;102189.38;;;7.30;100.00
72612;BME280;60655;52.182;4.474;2023-11-18T00:21:43;102194.34;;;7.33;100.00
72612;BME280;60655;52.182;4.474;2023-11-18T00:23:44;102195.47;;;7.31;100.00
72612;BME280;60655;52.182;4.474;2023-11-18T00:25:46;102211.19;;;7.32;100.00
72612;BME280;60655;52.182;4.474;2023-11-18T00:27:47;102213.47;;;7.27;100.00
72612;BME280;60655;52.182;4.474;2023-11-18T00:29:47;102211.31;;;7.23;100.00
72612;BME280;60655;52.182;4.474;2023-11-18T00:31:48;102202.75;;;7.29;100.00
72612;BME280;60655;52.182;4.474;2023-11-18T00:33:49;102215.59;;;7.24;100.00
72612;BME280;60655;52.182;4.474;2023-11-18T00:35:50;102214.13;;;7.21;100.00
72612;BME280;60655;52.182;4.474;2023-11-18T00:37:51;102212.13;;;7.23;100.00
72612;BME280;60655;52.182;4.474;2023-11-18T00:39:52;102215.28;;;7.27;100.00
72612;BME280;60655;52.182;4.474;2023-11-18T00:41:53;102204.19;;;7.23;100.00
72612;BME280;60655;52.182;4.474;2023-11-18T00:43:54;102208.50;;;7.24;100.00
72612;BME280;60655;52.182;4.474;2023-11-18T00:45:55;102218.75;;;7.27;100.00
72612;BME280;60655;52.182;4.474;2023-11-18T00:47:58;102214.63;;;7.25;100.00
72612;BME280;60655;52.182;4.474;2023-11-18T00:49:59;102215.63;;;7.32;100.00
72612;BME280;60655;52.182;4.474;2023-11-18T00:52:02;102209.84;;;7.28;100.00
72612;BME280;60655;52.182;4.474;2023-11-18T00:54:04;102219.44;;;7.29;100.00
72612;BME280;60655;52.182;4.474;2023-11-18T00:56:13;102220.56;;;7.27;100.00
72612;BME280;60655;52.182;4.474;2023-11-18T00:58:15;102221.75;;;7.32;100.00
72612;BME280;60655;52.182;4.474;2023-11-18T01:00:16;102217.28;;;7.33;100.00
72612;BME280;60655;52.182;4.474;2023-11-18T01:02:22;102222.56;;;7.33;100.00
72612;BME280;60655;52.182;4.474;2023-11-18T01:04:22;102222.06;;;7.29;100.00
72612;BME280;60655;52.182;4.474;2023-11-18T01:06:23;102200.31;;;7.43;100.00
72612;BME280;60655;52.182;4.474;2023-11-18T01:08:24;102208.75;;;7.47;100.00
72612;BME280;60655;52.182;4.474;2023-11-18T01:10:25;102216.50;;;7.40;100.00
72612;BME280;60655;52.182;4.474;2023-11-18T01:12:26;102215.50;;;7.41;100.00
72612;BME280;60655;52.182;4.474;2023-11-18T01:14:27;102210.38;;;7.40;100.00
72612;BME280;60655;52.182;4.474;2023-11-18T01:16:28;102209.19;;;7.34;100.00
72612;BME280;60655;52.182;4.474;2023-11-18T01:18:31;102206.72;;;7.33;100.00
72612;BME280;60655;52.182;4.474;2023-11-18T01:20:32;102211.50;;;7.29;100.00
72612;BME280;60655;52.182;4.474;2023-11-18T01:22:33;102212.31;;;7.30;100.00
72612;BME280;60655;52.182;4.474;2023-11-18T01:24:35;102203.88;;;7.18;100.00
72612;BME280;60655;52.182;4.474;2023-11-18T01:26:35;102215.13;;;7.20;100.00
72612;BME280;60655;52.182;4.474;2023-11-18T01:28:38;102219.44;;;7.29;100.00
72612;BME280;60655;52.182;4.474;2023-11-18T01:30:43;102219.44;;;7.29;100.00
72612;BME280;60655;52.182;4.474;2023-11-18T01:32:47;102229.69;;;7.32;100.00
72612;BME280;60655;52.182;4.474;2023-11-18T01:34:49;102231.97;;;7.27;100.00
72612;BME280;60655;52.182;4.474;2023-11-18T01:36:51;102226.72;;;7.35;100.00
72612;BME280;60655;52.182;4.474;2023-11-18T01:38:51;102235.75;;;7.25;100.00
72612;BME280;60655;52.182;4.474;2023-11-18T01:40:52;102236.75;;;7.24;100.00
72612;BME280;60655;52.182;4.474;2023-11-18T01:42:56;102232.81;;;7.28;100.00
72612;BME280;60655;52.182;4.474;2023-11-18T01:44:57;102240.88;;;7.18;100.00
72612;BME280;60655;52.182;4.474;2023-11-18T01:47:01;102234.91;;;7.16;100.00
72612;BME280;60655;52.182;4.474;2023-11-18T01:49:03;102242.69;;;7.26;100.00
72612;BME280;60655;52.182;4.474;2023-11-18T01:51:04;102232.28;;;7.16;100.00
72612;BME280;60655;52.182;4.474;2023-11-18T01:53:07;102236.75;;;7.24;100.00
72612;BME280;60655;52.182;4.474;2023-11-18T01:55:08;102228.66;;;7.17;100.00
72612;BME280;60655;52.182;4.474;2023-11-18T01:57:09;102236.25;;;7.20;100.00
72612;BME280;60655;52.182;4.474;2023-11-18T01:59:10;102228.28;;;7.12;100.00
72612;BME280;60655;52.182;4.474;2023-11-18T02:01:19;102231.13;;;7.19;100.00
72612;BME280;60655;52.182;4.474;2023-11-18T02:03:20;102229.16;;;7.21;100.00
72612;BME280;60655;52.182;4.474;2023-11-18T02:05:20;102233.59;;;7.12;100.00
72612;BME280;60655;52.182;4.474;2023-11-18T02:07:22;102239.69;;;7.13;100.00
72612;BME280;60655;52.182;4.474;2023-11-18T02:09:25;102235.59;;;7.18;100.00
72612;BME280;60655;52.182;4.474;2023-11-18T02:11:32;102244.16;;;7.12;100.00
72612;BME280;60655;52.182;4.474;2023-11-18T02:13:42;102234.41;;;7.13;100.00
72612;BME280;60655;52.182;4.474;2023-11-18T02:15:48;102234.41;;;7.13;100.00
72612;BME280;60655;52.182;4.474;2023-11-18T02:17:50;102231.81;;;7.21;100.00
72612;BME280;60655;52.182;4.474;2023-11-18T02:19:55;102235.28;;;7.21;100.00
72612;BME280;60655;52.182;4.474;2023-11-18T02:21:58;102222.91;;;7.22;100.00
72612;BME280;60655;52.182;4.474;2023-11-18T02:24:00;102216.09;;;7.19;100.00
72612;BME280;60655;52.182;4.474;2023-11-18T02:26:00;102216.44;;;7.16;100.00
72612;BME280;60655;52.182;4.474;2023-11-18T02:28:06;102212.97;;;7.16;100.00
72612;BME280;60655;52.182;4.474;2023-11-18T02:30:07;102216.78;;;7.21;100.00
72612;BME280;60655;52.182;4.474;2023-11-18T02:32:23;102209.50;;;7.23;100.00
72612;BME280;60655;52.182;4.474;2023-11-18T02:34:32;102204.19;;;7.23;100.00
72612;BME280;60655;52.182;4.474;2023-11-18T02:36:36;102195.28;;;7.24;100.00
72612;BME280;60655;52.182;4.474;2023-11-18T02:38:45;102191.19;;;7.22;100.00
72612;BME280;60655;52.182;4.474;2023-11-18T02:40:48;102193.63;;;7.23;100.00
72612;BME280;60655;52.182;4.474;2023-11-18T02:42:54;102195.63;;;7.29;100.00
72612;BME280;60655;52.182;4.474;2023-11-18T02:44:57;102190.81;;;7.25;100.00
72612;BME280;60655;52.182;4.474;2023-11-18T02:47:00;102190.19;;;7.31;100.00
72612;BME280;60655;52.182;4.474;2023-11-18T02:49:00;102187.22;;;7.34;100.00
72612;BME280;60655;52.182;4.474;2023-11-18T02:51:01;102192.81;;;7.23;100.00
72612;BME280;60655;52.182;4.474;2023-11-18T02:53:02;102181.59;;;7.29;100.00
72612;BME280;60655;52.182;4.474;2023-11-18T02:55:06;102179.63;;;7.31;100.00
72612;BME280;60655;52.182;4.474;2023-11-18T02:57:11;102186.22;;;7.27;100.00
72612;BME280;60655;52.182;4.474;2023-11-18T02:59:16;102176.63;;;7.26;100.00
72612;BME280;60655;52.182;4.474;2023-11-18T03:01:17;102184.22;;;7.21;100.00
72612;BME280;60655;52.182;4.474;2023-11-18T03:03:20;102185.22;;;7.28;100.00
72612;BME280;60655;52.182;4.474;2023-11-18T03:05:21;102182.78;;;7.34;100.00
72612;BME280;60655;52.182;4.474;2023-11-18T03:07:22;102170.84;;;7.30;100.00
72612;BME280;60655;52.182;4.474;2023-11-18T03:09:23;102181.13;;;7.33;100.00
72612;BME280;60655;52.182;4.474;2023-11-18T03:11:28;102169.56;;;7.42;100.00
72612;BME280;60655;52.182;4.474;2023-11-18T03:13:31;102167.56;;;7.36;100.00
72612;BME280;60655;52.182;4.474;2023-11-18T03:15:33;102168.59;;;7.43;100.00
72612;BME280;60655;52.182;4.474;2023-11-18T03:17:33;102159.81;;;7.35;100.00
72612;BME280;60655;52.182;4.474;2023-11-18T03:19:35;102147.22;;;7.29;100.00
72612;BME280;60655;52.182;4.474;2023-11-18T03:21:36;102136.50;;;7.30;100.00
72612;BME280;60655;52.182;4.474;2023-11-18T03:23:38;102139.47;;;7.35;100.00
72612;BME280;60655;52.182;4.474;2023-11-18T03:25:39;102136.19;;;7.33;100.00
72612;BME280;60655;52.182;4.474;2023-11-18T03:27:40;102125.13;;;7.46;100.00
72612;BME280;60655;52.182;4.474;2023-11-18T03:29:41;102103.00;;;7.47;100.00
72612;BME280;60655;52.182;4.474;2023-11-18T03:31:46;102111.56;;;7.41;100.00
72612;BME280;60655;52.182;4.474;2023-11-18T03:33:49;102120.66;;;7.38;100.00
72612;BME280;60655;52.182;4.474;2023-11-18T03:35:50;102100.84;;;7.42;100.00
72612;BME280;60655;52.182;4.474;2023-11-18T03:37:50;102104.13;;;7.36;100.00
72612;BME280;60655;52.182;4.474;2023-11-18T03:39:53;102094.22;;;7.38;100.00
72612;BME280;60655;52.182;4.474;2023-11-18T03:41:54;102091.41;;;7.40;100.00
72612;BME280;60655;52.182;4.474;2023-11-18T03:43:54;102095.53;;;7.34;100.00
72612;BME280;60655;52.182;4.474;2023-11-18T03:45:55;102100.00;;;7.42;100.00
72612;BME280;60655;52.182;4.474;2023-11-18T03:47:57;102088.94;;;7.38;100.00
72612;BME280;60655;52.182;4.474;2023-11-18T03:49:57;102100.03;;;7.50;100.00
72612;BME280;60655;52.182;4.474;2023-11-18T03:51:59;102088.78;;;7.48;100.00
72612;BME280;60655;52.182;4.474;2023-11-18T03:53:59;102094.72;;;7.42;100.00
72612;BME280;60655;52.182;4.474;2023-11-18T03:56:00;102078.03;;;7.33;100.00
72612;BME280;60655;52.182;4.474;2023-11-18T03:58:02;102087.13;;;7.47;100.00
72612;BME280;60655;52.182;4.474;2023-11-18T04:00:03;102081.50;;;7.42;100.00
72612;BME280;60655;52.182;4.474;2023-11-18T04:02:04;102079.03;;;7.40;100.00
72612;BME280;60655;52.182;4.474;2023-11-18T04:04:05;102075.72;;;7.38;100.00
72612;BME280;60655;52.182;4.474;2023-11-18T04:06:06;102068.44;;;7.40;100.00
72612;BME280;60655;52.182;4.474;2023-11-18T04:08:08;102055.06;;;7.42;100.00
72612;BME280;60655;52.182;4.474;2023-11-18T04:10:09;102055.72;;;7.52;100.00
72612;BME280;60655;52.182;4.474;2023-11-18T04:12:11;102031.78;;;7.37;100.00
72612;BME280;60655;52.182;4.474;2023-11-18T04:14:11;102046.97;;;7.43;100.00
72612;BME280;60655;52.182;4.474;2023-11-18T04:16:13;102049.13;;;7.40;100.00
72612;BME280;60655;52.182;4.474;2023-11-18T04:18:15;102045.97;;;7.36;100.00
72612;BME280;60655;52.182;4.474;2023-11-18T04:20:16;102047.97;;;7.42;100.00
72612;BME280;60655;52.182;4.474;2023-11-18T04:22:18;102052.75;;;7.39;100.00
72612;BME280;60655;52.182;4.474;2023-11-18T04:24:19;102059.84;;;7.38;100.00
72612;BME280;60655;52.182;4.474;2023-11-18T04:26:20;102040.19;;;7.33;100.00
72612;BME280;60655;52.182;4.474;2023-11-18T04:28:21;102044.81;;;7.31;100.00
72612;BME280;60655;52.182;4.474;2023-11-18T04:30:22;102040.00;;;7.26;100.00
72612;BME280;60655;52.182;4.474;2023-11-18T04:32:23;102043.66;;;7.25;100.00
72612;BME280;60655;52.182;4.474;2023-11-18T04:34:23;102040.69;;;7.36;100.00
72612;BME280;60655;52.182;4.474;2023-11-18T04:36:25;102037.22;;;7.36;100.00
72612;BME280;60655;52.182;4.474;2023-11-18T04:38:27;102043.50;;;7.35;100.00
72612;BME280;60655;52.182;4.474;2023-11-18T04:40:28;102044.66;;;7.32;100.00
72612;BME280;60655;52.182;4.474;2023-11-18T04:42:29;102033.75;;;7.35;100.00
72612;BME280;60655;52.182;4.474;2023-11-18T04:44:30;102035.72;;;7.25;100.00
72612;BME280;60655;52.182;4.474;2023-11-18T04:46:32;102038.69;;;7.30;100.00
72612;BME280;60655;52.182;4.474;2023-11-18T04:48:33;102032.25;;;7.33;100.00
72612;BME280;60655;52.182;4.474;2023-11-18T04:50:34;102029.94;;;7.38;100.00
72612;BME280;60655;52.182;4.474;2023-11-18T04:52:35;102036.56;;;7.34;100.00
72612;BME280;60655;52.182;4.474;2023-11-18T04:54:37;102018.38;;;7.31;100.00
72612;BME280;60655;52.182;4.474;2023-11-18T04:56:38;102014.59;;;7.33;100.00
72612;BME280;60655;52.182;4.474;2023-11-18T04:58:38;102017.91;;;7.43;100.00
72612;BME280;60655;52.182;4.474;2023-11-18T05:00:40;102015.91;;;7.37;100.00
72612;BME280;60655;52.182;4.474;2023-11-18T05:02:42;102012.28;;;7.38;100.00
72612;BME280;60655;52.182;4.474;2023-11-18T05:04:43;102004.50;;;7.37;100.00
72612;BME280;60655;52.182;4.474;2023-11-18T05:06:44;101996.25;;;7.32;100.00
72612;BME280;60655;52.182;4.474;2023-11-18T05:08:45;101990.47;;;7.44;100.00
72612;BME280;60655;52.182;4.474;2023-11-18T05:10:49;101981.03;;;7.34;100.00
72612;BME280;60655;52.182;4.474;2023-11-18T05:12:50;101977.75;;;7.32;100.00
72612;BME280;60655;52.182;4.474;2023-11-18T05:14:56;101975.09;;;7.32;100.00
72612;BME280;60655;52.182;4.474;2023-11-18T05:16:57;101983.84;;;7.40;100.00
72612;BME280;60655;52.182;4.474;2023-11-18T05:18:58;101969.19;;;7.22;100.00
72612;BME280;60655;52.182;4.474;2023-11-18T05:20:58;101981.38;;;7.39;100.00
72612;BME280;60655;52.182;4.474;2023-11-18T05:23:01;101989.47;;;7.45;100.00
72612;BME280;60655;52.182;4.474;2023-11-18T05:25:03;101970.81;;;7.39;100.00
72612;BME280;60655;52.182;4.474;2023-11-18T05:27:08;101968.50;;;7.44;100.00
72612;BME280;60655;52.182;4.474;2023-11-18T05:29:09;101968.44;;;7.52;100.00
72612;BME280;60655;52.182;4.474;2023-11-18T05:31:10;101971.28;;;7.51;100.00
72612;BME280;60655;52.182;4.474;2023-11-18T05:33:11;101973.94;;;7.51;100.00
72612;BME280;60655;52.182;4.474;2023-11-18T05:35:18;101954.44;;;7.43;100.00
72612;BME280;60655;52.182;4.474;2023-11-18T05:37:19;101967.16;;;7.48;100.00
72612;BME280;60655;52.182;4.474;2023-11-18T05:39:20;101964.34;;;7.50;100.00
72612;BME280;60655;52.182;4.474;2023-11-18T05:41:22;101952.59;;;7.52;100.00
72612;BME280;60655;52.182;4.474;2023-11-18T05:43:30;101955.44;;;7.51;100.00
72612;BME280;60655;52.182;4.474;2023-11-18T05:45:37;101949.50;;;7.40;100.00
72612;BME280;60655;52.182;4.474;2023-11-18T05:47:56;101950.81;;;7.44;100.00
72612;BME280;60655;52.182;4.474;2023-11-18T05:49:57;101940.41;;;7.43;100.00
72612;BME280;60655;52.182;4.474;2023-11-18T05:51:58;101943.50;;;7.55;100.00
72612;BME280;60655;52.182;4.474;2023-11-18T05:53:59;101940.69;;;7.56;100.00
72612;BME280;60655;52.182;4.474;2023-11-18T05:56:00;101946.19;;;7.38;100.00
72612;BME280;60655;52.182;4.474;2023-11-18T05:58:01;101932.31;;;7.44;100.00
72612;BME280;60655;52.182;4.474;2023-11-18T06:00:03;101947.00;;;7.47;100.00
72612;BME280;60655;52.182;4.474;2023-11-18T06:02:06;101938.91;;;7.49;100.00
72612;BME280;60655;52.182;4.474;2023-11-18T06:04:08;101939.56;;;7.51;100.00
72612;BME280;60655;52.182;4.474;2023-11-18T06:06:10;101944.16;;;7.57;100.00
72612;BME280;60655;52.182;4.474;2023-11-18T06:08:11;101922.06;;;7.50;100.00
72612;BME280;60655;52.182;4.474;2023-11-18T06:10:13;101915.44;;;7.45;100.00
72612;BME280;60655;52.182;4.474;2023-11-18T06:12:14;101920.59;;;7.39;100.00
72612;BME280;60655;52.182;4.474;2023-11-18T06:14:18;101917.44;;;7.35;100.00
72612;BME280;60655;52.182;4.474;2023-11-18T06:16:20;101934.97;;;7.36;100.00
72612;BME280;60655;52.182;4.474;2023-11-18T06:18:24;101939.09;;;7.39;100.00
72612;BME280;60655;52.182;4.474;2023-11-18T06:20:25;101941.06;;;7.29;100.00
72612;BME280;60655;52.182;4.474;2023-11-18T06:22:26;101934.63;;;7.39;100.00
72612;BME280;60655;52.182;4.474;2023-11-18T06:24:27;101927.19;;;7.35;100.00
72612;BME280;60655;52.182;4.474;2023-11-18T06:26:28;101924.38;;;7.36;100.00
72612;BME280;60655;52.182;4.474;2023-11-18T06:28:29;101925.97;;;7.54;100.00
72612;BME280;60655;52.182;4.474;2023-11-18T06:30:30;101914.31;;;7.40;100.00
72612;BME280;60655;52.182;4.474;2023-11-18T06:32:31;101908.03;;;7.33;100.00
72612;BME280;60655;52.182;4.474;2023-11-18T06:34:32;101914.63;;;7.37;100.00
72612;BME280;60655;52.182;4.474;2023-11-18T06:36:33;101915.78;;;7.34;100.00
72612;BME280;60655;52.182;4.474;2023-11-18T06:38:34;101917.13;;;7.38;100.00
72612;BME280;60655;52.182;4.474;2023-11-18T06:40:35;101910.66;;;7.41;100.00
72612;BME280;60655;52.182;4.474;2023-11-18T06:42:36;101917.59;;;7.42;100.00
72612;BME280;60655;52.182;4.474;2023-11-18T06:44:40;101903.25;;;7.36;100.00
72612;BME280;60655;52.182;4.474;2023-11-18T06:46:40;101918.59;;;7.49;100.00
72612;BME280;60655;52.182;4.474;2023-11-18T06:48:42;101908.19;;;7.48;100.00
72612;BME280;60655;52.182;4.474;2023-11-18T06:50:43;101909.66;;;7.42;100.00
72612;BME280;60655;52.182;4.474;2023-11-18T06:52:44;101907.19;;;7.40;100.00
72612;BME280;60655;52.182;4.474;2023-11-18T06:54:45;101918.09;;;7.37;100.00
72612;BME280;60655;52.182;4.474;2023-11-18T06:56:46;101911.50;;;7.33;100.00
72612;BME280;60655;52.182;4.474;2023-11-18T06:58:47;101920.41;;;7.40;100.00
72612;BME280;60655;52.182;4.474;2023-11-18T07:00:48;101921.72;;;7.44;100.00
72612;BME280;60655;52.182;4.474;2023-11-18T07:02:49;101921.72;;;7.44;100.00
72612;BME280;60655;52.182;4.474;2023-11-18T07:04:49;101926.34;;;7.51;100.00
72612;BME280;60655;52.182;4.474;2023-11-18T07:06:51;101917.78;;;7.40;100.00
72612;BME280;60655;52.182;4.474;2023-11-18T07:08:52;101922.72;;;7.35;100.00
72612;BME280;60655;52.182;4.474;2023-11-18T07:10:53;101902.63;;;7.18;100.00
72612;BME280;60655;52.182;4.474;2023-11-18T07:12:54;101923.88;;;7.49;100.00
72612;BME280;60655;52.182;4.474;2023-11-18T07:14:54;101913.31;;;7.49;100.00
72612;BME280;60655;52.182;4.474;2023-11-18T07:16:55;101917.59;;;7.42;100.00
72612;BME280;60655;52.182;4.474;2023-11-18T07:18:56;101924.38;;;7.44;100.00
72612;BME280;60655;52.182;4.474;2023-11-18T07:21:01;101921.41;;;7.39;100.00
72612;BME280;60655;52.182;4.474;2023-11-18T07:23:04;101931.81;;;7.33;100.00
72612;BME280;60655;52.182;4.474;2023-11-18T07:25:05;101935.44;;;7.32;100.00
72612;BME280;60655;52.182;4.474;2023-11-18T07:27:06;101934.97;;;7.36;100.00
72612;BME280;60655;52.182;4.474;2023-11-18T07:29:07;101929.72;;;7.20;100.00
72612;BME280;60655;52.182;4.474;2023-11-18T07:31:08;101922.72;;;7.35;100.00
72612;BME280;60655;52.182;4.474;2023-11-18T07:33:09;101917.78;;;7.40;100.00
72612;BME280;60655;52.182;4.474;2023-11-18T07:35:10;101910.66;;;7.41;100.00
72612;BME280;60655;52.182;4.474;2023-11-18T07:37:12;101893.81;;;7.42;100.00
72612;BME280;60655;52.182;4.474;2023-11-18T07:39:14;101904.22;;;7.43;100.00
72612;BME280;60655;52.182;4.474;2023-11-18T07:41:24;101899.75;;;7.36;100.00
72612;BME280;60655;52.182;4.474;2023-11-18T07:43:25;101898.09;;;7.43;100.00
72612;BME280;60655;52.182;4.474;2023-11-18T07:45:27;101888.03;;;7.30;100.00
72612;BME280;60655;52.182;4.474;2023-11-18T07:47:30;101887.22;;;7.38;100.00
72612;BME280;60655;52.182;4.474;2023-11-18T07:49:35;101885.38;;;7.47;100.00
72612;BME280;60655;52.182;4.474;2023-11-18T07:51:36;101883.56;;;7.39;100.00
72612;BME280;60655;52.182;4.474;2023-11-18T07:53:38;101875.81;;;7.37;100.00
72612;BME280;60655;52.182;4.474;2023-11-18T07:55:39;101867.22;;;7.43;100.00
72612;BME280;60655;52.182;4.474;2023-11-18T07:57:40;101875.47;;;7.40;100.00
72612;BME280;60655;52.182;4.474;2023-11-18T07:59:41;101868.38;;;7.41;100.00
72612;BME280;60655;52.182;4.474;2023-11-18T08:01:42;101874.81;;;7.38;100.00
72612;BME280;60655;52.182;4.474;2023-11-18T08:03:44;101879.63;;;7.35;100.00
72612;BME280;60655;52.182;4.474;2023-11-18T08:05:46;101884.06;;;7.34;100.00
72612;BME280;60655;52.182;4.474;2023-11-18T08:07:47;101879.50;;;7.20;100.00
72612;BME280;60655;52.182;4.474;2023-11-18T08:09:47;101878.78;;;7.26;100.00
72612;BME280;60655;52.182;4.474;2023-11-18T08:11:48;101877.16;;;7.25;100.00
72612;BME280;60655;52.182;4.474;2023-11-18T08:13:50;101883.91;;;7.36;100.00
72612;BME280;60655;52.182;4.474;2023-11-18T08:15:50;101877.47;;;7.30;100.00
72612;BME280;60655;52.182;4.474;2023-11-18T08:17:52;101868.22;;;7.26;100.00
72612;BME280;60655;52.182;4.474;2023-11-18T08:19:53;101876.16;;;7.26;100.00
72612;BME280;60655;52.182;4.474;2023-11-18T08:21:54;101884.06;;;7.34;100.00
72612;BME280;60655;52.182;4.474;2023-11-18T08:23:55;101876.97;;;7.35;100.00
72612;BME280;60655;52.182;4.474;2023-11-18T08:25:56;101869.84;;;7.43;100.00
72612;BME280;60655;52.182;4.474;2023-11-18T08:27:57;101865.56;;;7.42;100.00
72612;BME280;60655;52.182;4.474;2023-11-18T08:29:58;101862.91;;;7.42;100.00
72612;BME280;60655;52.182;4.474;2023-11-18T08:31:59;101841.81;;;7.26;100.00
72612;BME280;60655;52.182;4.474;2023-11-18T08:33:59;101834.16;;;7.39;100.00
72612;BME280;60655;52.182;4.474;2023-11-18T08:36:01;101817.03;;;7.27;100.00
72612;BME280;60655;52.182;4.474;2023-11-18T08:38:02;101819.66;;;7.35;100.00
72612;BME280;60655;52.182;4.474;2023-11-18T08:40:05;101817.25;;;7.18;100.00
72612;BME280;60655;52.182;4.474;2023-11-18T08:42:07;101811.94;;;7.18;100.00
72612;BME280;60655;52.182;4.474;2023-11-18T08:44:08;101820.16;;;7.23;100.00
72612;BME280;60655;52.182;4.474;2023-11-18T08:46:09;101821.47;;;7.27;100.00
72612;BME280;60655;52.182;4.474;2023-11-18T08:48:10;101811.41;;;7.30;100.00
72612;BME280;60655;52.182;4.474;2023-11-18T08:50:16;101800.81;;;7.30;100.00
72612;BME280;60655;52.182;4.474;2023-11-18T08:52:17;101803.69;;;7.21;100.00
72612;BME280;60655;52.182;4.474;2023-11-18T08:54:18;101796.59;;;7.21;100.00
72612;BME280;60655;52.182;4.474;2023-11-18T08:56:39;101783.16;;;7.31;100.00
72612;BME280;60655;52.182;4.474;2023-11-18T08:58:43;101766.97;;;7.26;100.00
72612;BME280;60655;52.182;4.474;2023-11-18T09:00:50;101756.63;;;7.16;100.00
72612;BME280;60655;52.182;4.474;2023-11-18T09:03:05;101763.41;;;7.10;100.00
72612;BME280;60655;52.182;4.474;2023-11-18T09:05:06;101753.53;;;7.04;100.00
72612;BME280;60655;52.182;4.474;2023-11-18T09:07:13;101749.88;;;7.14;100.00
72612;BME280;60655;52.182;4.474;2023-11-18T09:09:14;101747.88;;;7.16;100.00
72612;BME280;60655;52.182;4.474;2023-11-18T09:11:16;101742.09;;;7.12;100.00
72612;BME280;60655;52.182;4.474;2023-11-18T09:13:17;101743.91;;;7.20;100.00
72612;BME280;60655;52.182;4.474;2023-11-18T09:15:20;101731.13;;;7.23;100.00
72612;BME280;60655;52.182;4.474;2023-11-18T09:17:24;101736.75;;;7.28;100.00
72612;BME280;60655;52.182;4.474;2023-11-18T09:19:28;101724.25;;;7.14;100.00
72612;BME280;60655;52.182;4.474;2023-11-18T09:21:30;101719.28;;;7.19;100.00
72612;BME280;60655;52.182;4.474;2023-11-18T09:23:35;101726.50;;;7.25;100.00
72612;BME280;60655;52.182;4.474;2023-11-18T09:25:38;101713.63;;;7.22;100.00
72612;BME280;60655;52.182;4.474;2023-11-18T09:27:42;101734.41;;;7.33;100.00
72612;BME280;60655;52.182;4.474;2023-11-18T09:29:43;101740.44;;;7.19;100.00
72612;BME280;60655;52.182;4.474;2023-11-18T09:31:48;101738.13;;;7.16;100.00
72612;BME280;60655;52.182;4.474;2023-11-18T09:33:49;101739.22;;;7.30;100.00
72612;BME280;60655;52.182;4.474;2023-11-18T09:35:53;101728.97;;;7.27;100.00
72612;BME280;60655;52.182;4.474;2023-11-18T09:38:00;101722.22;;;7.24;100.00
72612;BME280;60655;52.182;4.474;2023-11-18T09:40:03;101728.09;;;7.42;100.00
72612;BME280;60655;52.182;4.474;2023-11-18T09:42:12;101722.31;;;7.39;100.00
72612;BME280;60655;52.182;4.474;2023-11-18T09:44:14;101739.50;;;7.43;100.00
72612;BME280;60655;52.182;4.474;2023-11-18T09:46:19;101737.09;;;7.56;100.00
72612;BME280;60655;52.182;4.474;2023-11-18T09:48:24;101733.78;;;7.54;100.00
72612;BME280;60655;52.182;4.474;2023-11-18T09:50:29;101722.78;;;7.51;100.00
72612;BME280;60655;52.182;4.474;2023-11-18T09:52:33;101723.03;;;7.56;100.00
72612;BME280;60655;52.182;4.474;2023-11-18T09:54:40;101726.84;;;7.53;100.00
72612;BME280;60655;52.182;4.474;2023-11-18T09:56:48;101733.28;;;7.59;100.00
72612;BME280;60655;52.182;4.474;2023-11-18T09:59:03;101738.88;;;7.64;100.00
72612;BME280;60655;52.182;4.474;2023-11-18T10:01:07;101726.31;;;7.66;100.00
72612;BME280;60655;52.182;4.474;2023-11-18T10:03:14;101722.47;;;7.68;100.00
72612;BME280;60655;52.182;4.474;2023-11-18T10:05:17;101727.91;;;7.75;100.00
72612;BME280;60655;52.182;4.474;2023-11-18T10:07:22;101720.97;;;7.74;100.00
72612;BME280;60655;52.182;4.474;2023-11-18T10:09:27;101701.16;;;7.70;100.00
72612;BME280;60655;52.182;4.474;2023-11-18T10:11:44;101702.03;;;7.85;100.00
72612;BME280;60655;52.182;4.474;2023-11-18T10:13:47;101698.38;;;7.86;100.00
72612;BME280;60655;52.182;4.474;2023-11-18T10:15:50;101690.97;;;7.82;100.00
72612;BME280;60655;52.182;4.474;2023-11-18T10:17:53;101692.78;;;7.81;100.00
72612;BME280;60655;52.182;4.474;2023-11-18T10:20:10;101686.31;;;7.84;100.00
72612;BME280;60655;52.182;4.474;2023-11-18T10:22:27;101673.94;;;7.84;100.00
72612;BME280;60655;52.182;4.474;2023-11-18T10:24:44;101673.75;;;7.86;100.00
72612;BME280;60655;52.182;4.474;2023-11-18T10:26:55;101657.31;;;7.75;100.00
72612;BME280;60655;52.182;4.474;2023-11-18T10:29:03;101669.19;;;7.79;100.00
72612;BME280;60655;52.182;4.474;2023-11-18T10:31:08;101664.81;;;7.87;100.00
72612;BME280;60655;52.182;4.474;2023-11-18T10:33:17;101659.16;;;7.90;100.00
72612;BME280;60655;52.182;4.474;2023-11-18T10:35:18;101667.00;;;7.83;100.00
72612;BME280;60655;52.182;4.474;2023-11-18T10:37:21;101655.69;;;7.89;100.00
72612;BME280;60655;52.182;4.474;2023-11-18T10:39:28;101649.13;;;7.85;100.00
72612;BME280;60655;52.182;4.474;2023-11-18T10:41:31;101626.78;;;7.88;100.00